Hinsonton, GA (31765)

10:28 AM EST on February 09, 2016 (GMT -0500)
Pine Park | | Change Station
CLOSE
Current Station
Personal Weather Station
Location: Cairo, GA
Elevation: 253 ft
Nearby Weather Stations
Active Advisory: Freeze Warning

Elev 253 ft 30.86 °N, 84.13 °W | Updated 11 minutes ago

Clear
Clear
48.4 °F
Feels Like 47 °F
N
3.8
Wind Variable Wind from NNW

Today
High -- | Low -- °F
--% Chance of Precip.
Yesterday
High -- | Low -- °F
Precip. -- in
Pressure 30.02 in
Visibility 10.0 miles
Clouds Clear
Windchill 47 °F
Dew Point 23 °F
Humidity 37%
Rainfall 0.00 in
Snow Depth Not available.
7:22 AM 6:18 PM
New Moon, 1% visible
METAR KTVI 091515Z AUTO 29012G23KT 10SM CLR 07/M06 A3002 RMK AO2
Pressure 30.02 in
Visibility 10.0 miles
Clouds Clear
Windchill 47 °F
Dew Point 23 °F
Humidity 37%
Rainfall 0.00 in
Snow Depth Not available.
7:22 AM 6:18 PM
New Moon, 1% visible
METAR KTVI 091515Z AUTO 29012G23KT 10SM CLR 07/M06 A3002 RMK AO2

10-Day Weather Forecast

Almanac

Astronomy

Feb. 09, 2016 Rise Set
Actual Time
Civil Twilight
Nautical Twilight
Astronomical Twilight
Moon
Length of Visible Light
Length of Day
Tomorrow will be .
, % of the Moon is Illuminated

Today's Extremes

State Highs State Lows

Community

WunderPhotos

Upload Photos

1,891,619 photos uploaded!

WunderBlog® & News

Nearby

Air Quality

  Air Quality AQ Index Pollutant
Not available.

Snow Depth

Station Depth Elevation

Earthquake Activity

City Distance Mag. Time & Date
Minimum magnitude displayed is 2.5.

Coastal Water Temperatures

Place Temperature

Stations

Nearby Weather Stations

Station Location Temp. Windchill Dew Point Humidity Wind Precip. Elev Updated Type
                   

Watches & Warnings

Freeze Warning
Issued: 2:30 AM CST Feb. 9, 2016 – National Weather Service

... Freeze warning in effect from 11 PM EST /10 PM CST/ this
evening to 9 am EST /8 am CST/ Wednesday...

The National Weather Service in Tallahassee has issued a freeze
warning... which is in effect from 11 PM EST /10 PM CST/ this
evening to 9 am EST /8 am CST/ Wednesday. The freeze watch is no
longer in effect.

* Minimum temperatures... 26 to 30 degrees.

* Freeze durations... from 10 hours over southeast Alabama to
around 3 hours south of Interstate 10.

Precautionary/preparedness actions...

A freeze warning means sub-freezing temperatures are imminent or
highly likely. These conditions will kill crops and other
sensitive vegetation.